Time;durP1;ratioP1;P1;durP2;ratioP2;P2;SDS_P1;SDS_P2;PMS_P1;PMS_P2;Temp;Humidity;BMP_temperature;BMP_pressure;BME280_temperature;BME280_humidity;BME280_pressure;Samples;Min_cycle;Max_cycle;Signal;HPM_P1;HPM_P2
2021/05/12 00:00:49;;;;;;;1.26;1.07;;;;;;;9.68;74.99;100854.84;468533;111;925876;-69
2021/05/12 00:01:53;;;;;;;1.19;1.09;;;;;;;9.68;75.04;100847.52;469297;112;930377;-69
2021/05/12 00:02:58;;;;;;;2.25;1.24;;;;;;;9.70;74.93;100844.61;465816;112;923999;-66
2021/05/12 00:04:02;;;;;;;1.18;1.06;;;;;;;9.71;74.87;100855.27;466428;112;922869;-68
2021/05/12 00:05:09;;;;;;;3.28;1.22;;;;;;;9.71;74.91;100846.26;466902;112;927231;-68
2021/05/12 00:06:13;;;;;;;1.03;1.03;;;;;;;9.73;74.95;100863.25;467878;112;922612;-68
2021/05/12 00:07:17;;;;;;;1.30;1.25;;;;;;;9.74;74.91;100843.98;466663;112;924303;-69
2021/05/12 00:08:23;;;;;;;1.34;1.31;;;;;;;9.75;74.82;100853.84;465659;112;933813;-68
2021/05/12 00:09:28;;;;;;;1.60;1.42;;;;;;;9.76;74.85;100849.24;465868;112;923814;-66
2021/05/12 00:10:32;;;;;;;1.68;1.58;;;;;;;9.76;74.81;100841.08;466693;112;922737;-69
2021/05/12 00:11:38;;;;;;;1.40;1.31;;;;;;;9.77;74.83;100853.63;465353;112;926856;-68
2021/05/12 00:12:42;;;;;;;1.72;1.52;;;;;;;9.77;74.85;100857.19;465350;112;930162;-69
2021/05/12 00:13:46;;;;;;;2.52;1.50;;;;;;;9.79;74.90;100851.55;467053;112;927714;-69
2021/05/12 00:14:51;;;;;;;3.49;1.76;;;;;;;9.79;74.87;100846.09;469250;112;926270;-69
2021/05/12 00:15:55;;;;;;;2.10;1.65;;;;;;;9.79;74.88;100849.67;469468;112;925329;-69
2021/05/12 00:18:17;;;;;;;1.82;1.69;;;;;;;9.94;74.86;100850.34;508829;101;935172;-68
2021/05/12 00:19:19;;;;;;;1.72;1.62;;;;;;;9.83;74.77;100845.48;492446;105;923931;-70
2021/05/12 00:20:28;;;;;;;1.69;1.54;;;;;;;9.84;74.69;100847.17;492683;107;922411;-67
2021/05/12 00:21:46;;;;;;;2.31;2.10;;;;;;;9.83;74.70;100841.92;493087;105;922777;-67
2021/05/12 00:22:55;;;;;;;3.26;1.78;;;;;;;9.82;74.63;100848.40;492525;105;923274;-68
2021/05/12 00:25:12;;;;;;;2.43;1.86;;;;;;;9.88;74.70;100844.87;470538;110;948400;-68
2021/05/12 00:26:16;;;;;;;2.99;2.17;;;;;;;9.75;74.77;100853.84;460901;112;922942;-69
2021/05/12 00:27:20;;;;;;;2.41;2.18;;;;;;;9.74;74.80;100845.88;453560;116;922521;-67
2021/05/12 00:28:24;;;;;;;3.65;2.42;;;;;;;9.73;74.89;100847.75;459730;111;922616;-67
2021/05/12 00:29:28;;;;;;;2.49;2.06;;;;;;;9.73;74.98;100845.03;455071;114;922501;-68
2021/05/12 00:30:32;;;;;;;2.22;1.86;;;;;;;9.74;75.06;100834.98;454416;113;922726;-68
2021/05/12 00:31:35;;;;;;;2.34;2.21;;;;;;;9.73;74.96;100845.03;454710;114;922604;-67
2021/05/12 00:32:41;;;;;;;2.31;2.14;;;;;;;9.74;74.90;100843.15;454145;115;930364;-68
2021/05/12 00:33:44;;;;;;;2.94;2.56;;;;;;;9.73;74.82;100844.19;454910;113;922673;-67
2021/05/12 00:34:47;;;;;;;3.51;3.18;;;;;;;9.71;74.73;100838.94;456251;113;923402;-65
2021/05/12 00:35:52;;;;;;;3.06;2.59;;;;;;;9.71;74.72;100840.81;457559;114;922947;-67
2021/05/12 00:36:55;;;;;;;3.28;2.75;;;;;;;9.71;74.66;100840.81;457371;116;922717;-66
2021/05/12 00:37:59;;;;;;;2.70;2.50;;;;;;;9.69;74.69;100854.66;456743;114;923846;-68
2021/05/12 00:39:06;;;;;;;3.01;2.67;;;;;;;9.69;74.71;100853.81;457076;114;922830;-68
2021/05/12 00:40:17;;;;;;;2.60;2.42;;;;;;;9.79;74.69;100846.94;509134;101;934415;-67
2021/05/12 00:41:21;;;;;;;2.87;2.53;;;;;;;9.69;74.63;100848.36;498504;105;922086;-70
2021/05/12 00:42:30;;;;;;;3.44;3.17;;;;;;;9.70;74.66;100850.05;497059;105;922268;-69
2021/05/12 00:43:34;;;;;;;2.88;2.67;;;;;;;9.70;74.51;100853.62;494741;104;922721;-69
2021/05/12 00:44:37;;;;;;;4.67;2.98;;;;;;;9.71;74.39;100859.88;490006;106;922536;-68
2021/05/12 00:45:41;;;;;;;3.26;2.95;;;;;;;9.71;74.39;100851.70;490788;106;930365;-68
2021/05/12 00:46:52;;;;;;;3.12;2.87;;;;;;;9.72;74.34;100856.95;490746;106;930724;-67
2021/05/12 00:47:57;;;;;;;5.89;3.06;;;;;;;9.73;74.23;100855.92;491065;105;923029;-69
2021/05/12 00:49:00;;;;;;;3.48;2.91;;;;;;;9.73;74.04;100855.92;491619;106;924706;-68
2021/05/12 00:50:05;;;;;;;3.73;3.40;;;;;;;9.74;73.90;100849.44;491268;106;923000;-70
2021/05/12 00:51:09;;;;;;;3.52;3.15;;;;;;;9.74;73.94;100854.04;492066;106;930400;-69
2021/05/12 00:52:13;;;;;;;3.48;3.28;;;;;;;9.75;73.93;100858.45;491438;105;922509;-69
2021/05/12 00:53:17;;;;;;;3.34;2.96;;;;;;;9.74;73.85;100851.31;491948;106;926483;-68
2021/05/12 00:54:20;;;;;;;3.06;2.82;;;;;;;9.74;73.90;100849.44;493256;106;922624;-69
2021/05/12 00:55:24;;;;;;;3.49;3.16;;;;;;;9.74;73.79;100860.33;490940;105;924066;-69
2021/05/12 00:56:29;;;;;;;2.84;2.64;;;;;;;9.75;73.72;100853.00;489823;105;922996;-68
2021/05/12 00:57:35;;;;;;;3.49;3.23;;;;;;;9.74;73.79;100860.33;493411;105;926970;-67
2021/05/12 00:58:39;;;;;;;3.04;2.82;;;;;;;9.76;73.78;100854.69;494498;105;924541;-70
2021/05/12 00:59:44;;;;;;;3.35;3.06;;;;;;;9.77;73.78;100857.19;489957;105;925236;-65
2021/05/12 01:00:48;;;;;;;3.39;3.09;;;;;;;9.78;73.65;100852.58;489730;105;931813;-68
2021/05/12 01:01:51;;;;;;;4.48;3.16;;;;;;;9.79;73.52;100865.16;489357;106;923941;-70
2021/05/12 01:02:56;;;;;;;3.24;2.94;;;;;;;9.78;73.51;100855.30;489058;105;930642;-69
2021/05/12 01:04:00;;;;;;;2.98;2.71;;;;;;;9.79;73.48;100855.11;491162;105;932237;-69
2021/05/12 01:05:05;;;;;;;3.14;2.89;;;;;;;9.79;73.29;100851.55;490982;105;926015;-68
2021/05/12 01:06:12;;;;;;;3.05;2.73;;;;;;;9.79;73.15;100854.27;491290;105;922465;-68
2021/05/12 01:07:16;;;;;;;3.11;2.59;;;;;;;9.77;73.08;100864.52;489021;105;923044;-68
2021/05/12 01:08:20;;;;;;;3.18;2.89;;;;;;;9.76;73.04;100862.86;491205;106;926952;-67
2021/05/12 01:09:24;;;;;;;2.80;2.59;;;;;;;9.75;73.01;100853.84;490853;105;930317;-68
2021/05/12 01:10:28;;;;;;;3.60;2.85;;;;;;;9.74;72.99;100856.77;491251;105;922562;-67
2021/05/12 01:11:32;;;;;;;2.98;2.55;;;;;;;9.73;72.99;100861.37;490979;106;922418;-68
2021/05/12 01:12:36;;;;;;;3.12;2.81;;;;;;;9.73;72.92;100857.80;490391;105;922747;-70
2021/05/12 01:13:39;;;;;;;3.11;2.71;;;;;;;9.72;72.97;100859.68;490463;105;923965;-69
2021/05/12 01:14:43;;;;;;;3.37;3.08;;;;;;;9.71;72.91;100866.16;493062;106;923036;-68
2021/05/12 01:15:46;;;;;;;3.66;2.52;;;;;;;9.72;72.90;100867.84;492232;105;922441;-70
2021/05/12 01:16:50;;;;;;;3.31;2.74;;;;;;;9.72;72.89;100865.13;492172;105;930177;-68
2021/05/12 01:18:21;;;;;;;4.41;2.74;;;;;;;9.73;72.91;100871.41;491795;105;922375;-69
2021/05/12 01:19:27;;;;;;;5.19;2.68;;;;;;;9.73;72.90;100861.37;489570;105;922552;-68
2021/05/12 01:20:30;;;;;;;3.05;2.65;;;;;;;9.74;72.86;100873.10;491741;105;922983;-67
2021/05/12 01:21:34;;;;;;;2.75;2.18;;;;;;;9.72;72.83;100873.30;491552;106;922732;-69
2021/05/12 01:22:39;;;;;;;3.02;2.73;;;;;;;9.73;72.83;100872.26;489152;105;922544;-69
2021/05/12 01:23:45;;;;;;;2.82;2.59;;;;;;;9.74;72.72;100878.55;490339;106;922440;-69
2021/05/12 01:24:49;;;;;;;2.78;2.53;;;;;;;9.74;72.59;100870.38;489837;106;930376;-69
2021/05/12 01:25:54;;;;;;;2.54;2.34;;;;;;;9.73;72.58;100876.86;491525;105;922558;-68
2021/05/12 01:26:58;;;;;;;2.72;2.42;;;;;;;9.73;72.69;100874.98;490716;105;923144;-69
2021/05/12 01:28:02;;;;;;;3.19;2.73;;;;;;;9.73;72.59;100874.14;490870;105;922392;-69
2021/05/12 01:29:06;;;;;;;2.36;2.24;;;;;;;9.73;72.63;100872.26;490758;106;930599;-68
2021/05/12 01:30:10;;;;;;;2.78;2.58;;;;;;;9.74;72.70;100873.10;491261;105;930263;-69
2021/05/12 01:31:32;;;;;;;3.41;2.34;;;;;;;9.74;72.66;100876.66;490294;105;923011;-69
2021/05/12 01:32:36;;;;;;;3.22;2.79;;;;;;;9.75;72.62;100872.06;491888;105;922373;-69
2021/05/12 01:33:41;;;;;;;3.24;2.69;;;;;;;9.76;72.58;100879.20;491805;105;922602;-68
2021/05/12 01:34:44;;;;;;;3.54;2.33;;;;;;;9.76;72.51;100877.28;491797;106;922524;-69
2021/05/12 01:35:48;;;;;;;3.44;2.31;;;;;;;9.76;72.46;100871.84;490928;105;922908;-69
2021/05/12 01:36:51;;;;;;;2.66;2.35;;;;;;;9.77;72.50;100870.80;492900;106;922978;-69
2021/05/12 01:37:56;;;;;;;2.64;2.32;;;;;;;9.79;72.48;100870.61;494131;106;922790;-68
2021/05/12 01:39:00;;;;;;;2.96;2.32;;;;;;;9.79;72.27;100867.88;489929;105;923957;-69
2021/05/12 01:40:06;;;;;;;4.11;2.58;;;;;;;9.79;72.21;100874.17;489496;105;931675;-69
2021/05/12 01:41:10;;;;;;;2.87;2.11;;;;;;;9.80;72.29;100877.74;489521;106;922551;-68
2021/05/12 01:42:13;;;;;;;2.42;2.22;;;;;;;9.80;72.24;100875.86;490203;106;925582;-67
2021/05/12 01:43:17;;;;;;;2.36;2.19;;;;;;;9.81;72.22;100873.98;491101;106;923378;-68
2021/05/12 01:44:22;;;;;;;2.24;1.99;;;;;;;9.81;72.33;100874.83;490740;105;924803;-69
2021/05/12 01:45:26;;;;;;;3.38;2.57;;;;;;;9.83;72.33;100880.05;489866;105;930360;-68
2021/05/12 01:46:31;;;;;;;2.29;2.04;;;;;;;9.84;72.28;100879.85;488792;106;923812;-68
2021/05/12 01:47:36;;;;;;;2.63;2.15;;;;;;;9.86;72.26;100876.94;478016;106;931962;-69
2021/05/12 01:48:40;;;;;;;2.91;2.31;;;;;;;9.87;72.11;100871.26;479231;106;922882;-69
2021/05/12 01:49:43;;;;;;;2.56;2.09;;;;;;;9.90;72.06;100878.20;491301;106;924225;-66
2021/05/12 01:50:48;;;;;;;2.56;2.36;;;;;;;9.91;72.07;100883.45;490478;106;923732;-66
2021/05/12 01:51:52;;;;;;;2.51;2.25;;;;;;;9.94;72.00;100890.36;491016;105;922742;-67
2021/05/12 01:52:55;;;;;;;2.33;2.14;;;;;;;9.96;71.87;100891.01;491217;105;922397;-66
2021/05/12 01:53:59;;;;;;;2.08;1.98;;;;;;;9.96;71.81;100885.56;490849;106;932900;-68
2021/05/12 01:55:05;;;;;;;2.51;2.31;;;;;;;9.97;71.80;100876.35;490663;106;930173;-66
2021/05/12 01:56:11;;;;;;;3.88;2.43;;;;;;;9.98;71.70;100878.00;490860;105;931720;-68
2021/05/12 01:57:16;;;;;;;3.74;2.22;;;;;;;9.98;71.50;100887.02;472053;109;922646;-68
2021/05/12 01:58:21;;;;;;;3.77;1.98;;;;;;;9.98;71.34;100886.17;490447;105;924004;-68
2021/05/12 01:59:25;;;;;;;2.98;2.47;;;;;;;9.99;71.37;100890.59;491214;105;922832;-68
2021/05/12 02:00:35;;;;;;;2.00;1.88;;;;;;;10.00;71.31;100892.27;491126;105;923976;-66
2021/05/12 02:01:39;;;;;;;2.63;2.35;;;;;;;9.99;71.29;100896.88;491519;105;924609;-67
2021/05/12 02:02:43;;;;;;;2.85;2.65;;;;;;;10.00;71.25;100889.55;493672;105;926364;-68
2021/05/12 02:03:49;;;;;;;3.51;2.82;;;;;;;10.00;71.14;100900.45;489875;106;923065;-67
2021/05/12 02:04:53;;;;;;;3.34;2.77;;;;;;;10.01;71.15;100896.69;490448;106;924215;-68
2021/05/12 02:05:57;;;;;;;3.04;2.46;;;;;;;10.02;71.12;100892.92;489076;106;923280;-69
2021/05/12 02:07:00;;;;;;;3.54;2.58;;;;;;;10.04;71.07;100888.09;490475;106;926253;-68
2021/05/12 02:08:07;;;;;;;2.64;2.43;;;;;;;10.04;71.04;100886.20;490395;105;932566;-68
2021/05/12 02:09:10;;;;;;;2.71;2.44;;;;;;;10.07;70.94;100887.70;489809;105;922926;-67
2021/05/12 02:10:15;;;;;;;2.67;2.34;;;;;;;10.07;70.93;100886.86;484285;107;922942;-69
2021/05/12 02:11:18;;;;;;;2.33;2.13;;;;;;;10.06;70.79;100888.73;485233;106;930413;-69
2021/05/12 02:12:22;;;;;;;2.61;2.41;;;;;;;10.06;70.81;100891.46;490909;105;923032;-67
2021/05/12 02:13:29;;;;;;;3.02;2.24;;;;;;;10.05;70.77;100889.78;491302;106;923031;-67
2021/05/12 02:14:33;;;;;;;2.49;2.03;;;;;;;10.05;70.82;100887.89;486411;107;930332;-68
2021/05/12 02:15:37;;;;;;;2.32;2.00;;;;;;;10.05;70.76;100889.78;487572;106;922515;-67
2021/05/12 02:16:41;;;;;;;3.05;2.12;;;;;;;10.04;70.72;100898.98;491174;106;923039;-67
2021/05/12 02:17:45;;;;;;;2.72;2.24;;;;;;;10.05;70.68;100892.50;491205;105;922852;-68
2021/05/12 02:18:49;;;;;;;2.24;2.05;;;;;;;10.04;70.70;100896.27;491710;106;930311;-69
2021/05/12 02:19:52;;;;;;;3.50;2.33;;;;;;;10.04;70.76;100904.44;492562;105;922812;-69
2021/05/12 02:20:56;;;;;;;2.86;2.12;;;;;;;10.04;70.71;100902.55;491379;106;930545;-67
2021/05/12 02:22:00;;;;;;;2.87;2.32;;;;;;;10.05;70.71;100900.67;490134;105;922493;-68
2021/05/12 02:23:07;;;;;;;3.12;2.39;;;;;;;10.06;70.64;100899.64;494023;106;922304;-69
2021/05/12 02:24:11;;;;;;;2.77;2.11;;;;;;;10.08;70.70;100911.19;493033;106;930266;-69
2021/05/12 02:25:15;;;;;;;3.27;2.02;;;;;;;10.10;70.64;100902.78;491220;106;923077;-68
2021/05/12 02:26:19;;;;;;;3.85;2.31;;;;;;;10.10;70.56;100903.62;491167;105;930335;-67
2021/05/12 02:27:22;;;;;;;2.02;1.82;;;;;;;10.10;70.45;100898.17;489115;106;922944;-68
2021/05/12 02:28:26;;;;;;;2.96;2.41;;;;;;;10.11;70.45;100904.47;489014;105;922627;-68
2021/05/12 02:29:29;;;;;;;2.35;2.15;;;;;;;10.11;70.44;100905.31;490753;105;923037;-68
2021/05/12 02:30:34;;;;;;;2.67;2.17;;;;;;;10.11;70.50;100902.59;488878;106;925474;-67
2021/05/12 02:31:37;;;;;;;3.09;2.78;;;;;;;10.12;70.54;100915.17;470642;109;927221;-67
2021/05/12 02:32:41;;;;;;;3.54;2.28;;;;;;;10.13;70.46;100903.23;491965;106;922434;-68
2021/05/12 02:33:45;;;;;;;3.96;2.22;;;;;;;10.13;70.44;100908.69;469770;111;933131;-67
2021/05/12 02:34:48;;;;;;;3.31;2.16;;;;;;;10.12;70.35;100908.88;469946;111;924092;-67
2021/05/12 02:35:52;;;;;;;2.59;1.85;;;;;;;10.12;70.37;100911.60;490731;105;933868;-68
2021/05/12 02:36:56;;;;;;;2.30;2.10;;;;;;;10.12;70.40;100912.45;489934;106;933109;-69
2021/05/12 02:38:01;;;;;;;3.55;1.97;;;;;;;10.12;70.49;100912.45;490313;105;924076;-68
2021/05/12 02:39:05;;;;;;;2.39;2.19;;;;;;;10.12;70.57;100907.00;490993;105;922958;-68
2021/05/12 02:40:12;;;;;;;3.82;1.85;;;;;;;10.11;70.43;100913.48;490925;105;922857;-69
2021/05/12 02:41:15;;;;;;;2.04;1.83;;;;;;;10.11;70.40;100918.09;492080;106;922910;-66
2021/05/12 02:42:19;;;;;;;2.67;1.75;;;;;;;10.10;70.44;100928.14;491302;106;922738;-68
2021/05/12 02:43:23;;;;;;;2.31;2.08;;;;;;;10.11;70.49;100912.64;490976;106;930040;-66
2021/05/12 02:44:26;;;;;;;2.90;1.96;;;;;;;10.11;70.59;100918.09;490301;105;931775;-68
2021/05/12 02:45:32;;;;;;;3.55;2.22;;;;;;;10.11;70.60;100923.54;493101;106;922808;-68
2021/05/12 02:46:36;;;;;;;2.64;1.98;;;;;;;10.11;70.57;100921.66;490089;105;923986;-67
2021/05/12 02:47:40;;;;;;;2.39;2.11;;;;;;;10.12;70.58;100920.63;492036;105;922677;-68
2021/05/12 02:48:43;;;;;;;2.57;2.08;;;;;;;10.12;70.53;100919.78;491934;105;922837;-67
2021/05/12 02:49:47;;;;;;;3.52;2.11;;;;;;;10.11;70.54;100918.09;490729;105;922462;-67
2021/05/12 02:50:50;;;;;;;2.95;2.24;;;;;;;10.10;70.51;100924.58;490439;105;923980;-67
2021/05/12 02:51:54;;;;;;;4.11;2.53;;;;;;;10.09;70.57;100926.45;490363;105;930317;-69
2021/05/12 02:52:59;;;;;;;1.76;1.66;;;;;;;10.09;70.61;100928.37;489268;106;931955;-68
2021/05/12 02:54:03;;;;;;;2.47;1.81;;;;;;;10.08;70.62;100926.69;490546;105;922619;-66
2021/05/12 02:55:08;;;;;;;4.54;2.11;;;;;;;10.09;70.67;100931.91;490520;106;924421;-66
2021/05/12 02:56:12;;;;;;;1.94;1.79;;;;;;;10.09;70.70;100923.73;489183;105;925343;-68
2021/05/12 02:57:17;;;;;;;2.53;1.82;;;;;;;10.08;70.72;100935.70;491085;105;924485;-66
2021/05/12 02:58:22;;;;;;;4.22;2.21;;;;;;;10.09;70.76;100926.45;491089;105;922635;-67
2021/05/12 02:59:25;;;;;;;2.30;1.88;;;;;;;10.09;70.81;100934.63;490488;106;923584;-68
2021/05/12 03:00:29;;;;;;;3.34;1.85;;;;;;;10.09;70.85;100926.45;472691;109;923089;-68
2021/05/12 03:01:33;;;;;;;2.37;1.57;;;;;;;10.09;70.84;100926.45;492132;105;922367;-68
2021/05/12 03:02:36;;;;;;;2.48;1.76;;;;;;;10.09;70.83;100928.37;491243;105;922610;-67
2021/05/12 03:03:40;;;;;;;3.12;1.76;;;;;;;10.09;70.89;100933.82;491910;105;922929;-67
2021/05/12 03:04:44;;;;;;;2.12;1.86;;;;;;;10.09;70.96;100931.91;491650;105;922745;-68
2021/05/12 03:05:47;;;;;;;2.12;1.56;;;;;;;10.11;71.06;100934.44;491277;105;922576;-68
2021/05/12 03:06:51;;;;;;;2.33;1.90;;;;;;;10.12;71.04;100930.67;491579;105;930107;-67
2021/05/12 03:07:55;;;;;;;2.47;1.56;;;;;;;10.12;71.09;100938.85;492609;106;930412;-67
2021/05/12 03:08:58;;;;;;;2.34;1.76;;;;;;;10.12;71.03;100939.70;491264;105;922414;-67
2021/05/12 03:10:05;;;;;;;2.20;1.73;;;;;;;10.11;71.07;100942.61;481740;108;923020;-67
2021/05/12 03:11:09;;;;;;;2.16;1.90;;;;;;;10.11;71.06;100939.89;479801;106;931740;-69
2021/05/12 03:12:13;;;;;;;2.46;2.26;;;;;;;10.10;71.13;100932.75;490874;105;926571;-66
2021/05/12 03:13:16;;;;;;;4.87;1.77;;;;;;;10.10;71.18;100943.65;490623;105;925140;-68
2021/05/12 03:14:21;;;;;;;2.37;1.81;;;;;;;10.09;71.19;100944.72;491405;105;930349;-69
2021/05/12 03:15:26;;;;;;;1.37;1.26;;;;;;;10.07;71.31;100944.07;489381;106;930193;-67
2021/05/12 03:16:30;;;;;;;1.92;1.49;;;;;;;10.07;71.49;100944.91;490568;106;922789;-69
2021/05/12 03:17:33;;;;;;;3.44;1.69;;;;;;;10.07;71.60;100938.63;491428;105;925373;-67
2021/05/12 03:18:37;;;;;;;1.69;1.59;;;;;;;10.05;71.66;100942.38;490204;105;930389;-68
2021/05/12 03:19:41;;;;;;;1.46;1.36;;;;;;;10.05;71.69;100942.38;490432;106;922546;-69
2021/05/12 03:20:44;;;;;;;2.36;1.16;;;;;;;10.04;71.81;100942.58;490465;106;933823;-68
2021/05/12 03:21:48;;;;;;;1.94;1.55;;;;;;;10.03;71.84;100944.45;491212;105;930031;-69
2021/05/12 03:22:52;;;;;;;1.29;1.25;;;;;;;10.02;71.93;100939.23;490725;105;922354;-67
2021/05/12 03:23:56;;;;;;;2.38;2.15;;;;;;;10.01;72.01;100941.11;491597;105;931814;-69
2021/05/12 03:25:01;;;;;;;4.01;2.02;;;;;;;10.00;72.11;100938.59;491916;106;922536;-68
2021/05/12 03:26:05;;;;;;;1.93;1.78;;;;;;;10.00;72.22;100941.31;491494;106;922572;-68
2021/05/12 03:27:09;;;;;;;3.48;3.15;;;;;;;10.00;72.33;100947.60;491151;105;924027;-68
2021/05/12 03:28:13;;;;;;;2.45;2.17;;;;;;;10.01;72.41;100951.17;486182;106;924274;-68
2021/05/12 03:29:16;;;;;;;1.85;1.45;;;;;;;10.00;72.46;100949.48;488873;106;924030;-68
2021/05/12 03:30:27;;;;;;;1.77;1.53;;;;;;;9.98;72.48;100946.95;491064;106;922433;-66
2021/05/12 03:31:30;;;;;;;2.44;2.18;;;;;;;9.98;72.53;100948.83;490336;105;922586;-68
2021/05/12 03:32:34;;;;;;;1.99;1.81;;;;;;;9.98;72.62;100957.84;493314;105;924015;-68
2021/05/12 03:33:40;;;;;;;1.98;1.66;;;;;;;9.97;72.62;100949.90;489326;106;923198;-67
2021/05/12 03:34:43;;;;;;;2.21;1.81;;;;;;;9.96;72.58;100953.66;489487;106;925916;-68
2021/05/12 03:35:47;;;;;;;2.05;1.84;;;;;;;9.94;72.61;100953.01;490752;105;927035;-69
2021/05/12 03:36:50;;;;;;;2.01;1.49;;;;;;;9.91;72.69;100948.82;489221;106;931981;-67
2021/05/12 03:37:56;;;;;;;3.08;2.78;;;;;;;9.91;72.76;100947.98;489753;106;930074;-66
2021/05/12 03:39:00;;;;;;;1.85;1.42;;;;;;;9.90;72.80;100943.57;490386;105;930328;-69
2021/05/12 03:40:06;;;;;;;2.16;1.92;;;;;;;9.90;72.84;100949.86;489897;105;930271;-66
2021/05/12 03:41:10;;;;;;;2.38;2.21;;;;;;;9.91;72.90;100947.98;489341;106;924150;-67
2021/05/12 03:42:14;;;;;;;4.97;4.58;;;;;;;9.94;72.98;100953.01;490943;105;922937;-68
2021/05/12 03:43:18;;;;;;;1.71;1.22;;;;;;;9.94;73.05;100947.56;489989;105;924028;-68
2021/05/12 03:44:22;;;;;;;3.08;1.34;;;;;;;9.96;73.02;100948.21;490245;106;931757;-69
2021/05/12 03:45:27;;;;;;;2.46;1.56;;;;;;;9.95;73.06;100944.64;490626;106;930180;-68
2021/05/12 03:46:31;;;;;;;1.99;1.38;;;;;;;9.97;73.11;100945.30;490908;105;922488;-68
2021/05/12 03:47:35;;;;;;;1.34;1.05;;;;;;;9.98;73.06;100948.83;491026;106;925910;-67
2021/05/12 03:48:39;;;;;;;2.12;1.24;;;;;;;9.99;73.01;100951.36;491753;105;924034;-68
2021/05/12 03:49:42;;;;;;;1.62;1.31;;;;;;;10.00;73.05;100950.33;492774;105;922687;-69
2021/05/12 03:50:45;;;;;;;1.41;1.24;;;;;;;10.01;72.98;100943.00;490463;106;930228;-70
2021/05/12 03:51:49;;;;;;;1.32;1.06;;;;;;;10.01;72.97;100960.19;491070;105;922716;-68
2021/05/12 03:52:53;;;;;;;1.67;1.00;;;;;;;10.02;72.94;100947.41;491541;106;923607;-69
2021/05/12 03:53:57;;;;;;;1.70;1.10;;;;;;;10.03;72.90;100951.81;484373;108;922496;-67
2021/05/12 03:55:01;;;;;;;1.34;1.09;;;;;;;10.04;72.80;100954.31;482003;105;930423;-67
2021/05/12 03:56:05;;;;;;;2.23;0.95;;;;;;;10.05;72.72;100956.00;489489;106;930058;-67
2021/05/12 03:57:08;;;;;;;1.33;0.84;;;;;;;10.04;72.54;100948.87;491487;105;923227;-68
2021/05/12 03:58:12;;;;;;;1.02;0.81;;;;;;;10.04;72.50;100951.59;489868;105;922902;-68
2021/05/12 03:59:16;;;;;;;1.65;1.15;;;;;;;10.04;72.42;100950.75;489686;105;930055;-68
2021/05/12 04:00:21;;;;;;;2.04;1.04;;;;;;;10.04;72.31;100950.75;491238;105;922580;-67
2021/05/12 04:01:24;;;;;;;1.86;1.00;;;;;;;10.03;72.32;100949.91;490238;105;922352;-68
2021/05/12 04:02:28;;;;;;;2.21;0.89;;;;;;;10.03;72.33;100952.63;491113;105;922953;-68
2021/05/12 04:03:32;;;;;;;1.06;0.73;;;;;;;10.04;72.30;100945.30;491010;106;922409;-69
2021/05/12 04:04:36;;;;;;;1.01;0.96;;;;;;;10.05;72.26;100947.83;490360;105;923223;-68
2021/05/12 04:05:40;;;;;;;2.24;0.98;;;;;;;10.05;72.04;100949.71;490711;105;922642;-69
2021/05/12 04:06:48;;;;;;;1.19;0.69;;;;;;;10.07;72.07;100947.64;492218;105;932932;-68
2021/05/12 04:07:50;;;;;;;0.81;0.78;;;;;;;10.08;71.96;100951.20;490336;106;930105;-67
2021/05/12 04:08:53;;;;;;;1.27;0.58;;;;;;;10.08;72.05;100954.77;491067;106;922458;-69
2021/05/12 04:09:57;;;;;;;1.19;0.53;;;;;;;10.09;72.03;100953.70;474416;109;923099;-67
2021/05/12 04:11:01;;;;;;;1.62;0.86;;;;;;;10.11;72.02;100962.53;482495;107;924062;-67
2021/05/12 04:12:05;;;;;;;0.86;0.77;;;;;;;10.13;72.09;100959.61;481334;106;924000;-67
2021/05/12 04:13:09;;;;;;;1.13;0.76;;;;;;;10.15;72.03;100965.67;491657;105;922387;-68
2021/05/12 04:14:12;;;;;;;1.91;0.88;;;;;;;10.16;71.98;100957.34;491228;105;924630;-67
2021/05/12 04:15:18;;;;;;;0.93;0.68;;;;;;;10.17;71.96;100958.19;492851;106;932277;-67
2021/05/12 04:16:22;;;;;;;1.19;0.76;;;;;;;10.18;71.81;100966.16;479843;108;923036;-67
2021/05/12 04:17:26;;;;;;;0.77;0.77;;;;;;;10.19;71.73;100967.01;481364;106;923938;-66
2021/05/12 04:18:30;;;;;;;0.75;0.68;;;;;;;10.20;71.76;100960.52;489903;105;923021;-68
2021/05/12 04:19:36;;;;;;;1.08;0.69;;;;;;;10.21;71.70;100963.02;490895;105;924862;-67
2021/05/12 04:20:41;;;;;;;1.24;0.64;;;;;;;10.23;71.60;100969.13;490485;105;932111;-69
2021/05/12 04:21:46;;;;;;;0.41;0.41;;;;;;;10.23;71.56;100963.67;490776;105;923172;-68
2021/05/12 04:22:50;;;;;;;0.58;0.57;;;;;;;10.25;71.47;100963.48;490445;105;922928;-67
2021/05/12 04:23:54;;;;;;;0.90;0.71;;;;;;;10.27;71.35;100961.37;490341;105;922469;-67
2021/05/12 04:24:58;;;;;;;1.31;0.80;;;;;;;10.28;71.22;100961.17;490267;105;925511;-66
2021/05/12 04:26:01;;;;;;;3.26;1.09;;;;;;;10.29;71.04;100962.02;491778;105;925535;-66
2021/05/12 04:27:05;;;;;;;1.29;0.58;;;;;;;10.29;70.92;100970.19;490626;105;923040;-66
2021/05/12 04:28:08;;;;;;;0.72;0.72;;;;;;;10.30;70.93;100970.00;490948;105;922773;-68
2021/05/12 04:29:12;;;;;;;1.28;0.64;;;;;;;10.29;70.86;100959.30;490696;105;930277;-67
2021/05/12 04:30:19;;;;;;;1.96;0.66;;;;;;;10.31;70.84;100963.48;490684;105;922501;-67
2021/05/12 04:31:22;;;;;;;1.18;0.86;;;;;;;10.32;70.87;100970.61;471514;109;922571;-67
2021/05/12 04:32:26;;;;;;;0.94;0.72;;;;;;;10.34;70.77;100973.98;492181;106;922748;-66
2021/05/12 04:33:30;;;;;;;0.86;0.67;;;;;;;10.35;70.66;100972.11;489990;105;930283;-67
2021/05/12 04:34:34;;;;;;;1.92;0.72;;;;;;;10.36;70.63;100960.17;490388;106;930553;-68
2021/05/12 04:35:39;;;;;;;2.09;1.01;;;;;;;10.35;70.56;100963.92;491713;106;922644;-68
2021/05/12 04:36:43;;;;;;;3.78;0.79;;;;;;;10.36;70.47;100969.19;493518;106;922614;-68
2021/05/12 04:37:47;;;;;;;2.92;1.15;;;;;;;10.37;70.45;100979.02;491105;105;930288;-67
2021/05/12 04:38:51;;;;;;;1.44;1.33;;;;;;;10.37;70.42;100972.72;489962;105;922892;-69
2021/05/12 04:39:54;;;;;;;3.44;1.95;;;;;;;10.37;70.27;100978.17;469495;109;923047;-66
2021/05/12 04:40:59;;;;;;;1.91;1.20;;;;;;;10.37;70.24;100983.63;489432;106;930635;-69
2021/05/12 04:42:02;;;;;;;2.80;1.20;;;;;;;10.38;70.24;100986.16;484309;106;922733;-67
2021/05/12 04:43:06;;;;;;;1.37;0.95;;;;;;;10.38;70.37;100983.44;470364;110;922938;-68
2021/05/12 04:44:09;;;;;;;1.67;1.27;;;;;;;10.41;70.25;100985.77;473938;109;930177;-68
2021/05/12 04:45:19;;;;;;;0.61;0.59;;;;;;;10.42;70.06;100992.03;473449;110;930255;-67
2021/05/12 04:46:21;;;;;;;1.38;0.70;;;;;;;10.43;70.09;100982.81;474585;109;922984;-67
2021/05/12 04:47:24;;;;;;;1.98;0.76;;;;;;;10.43;69.94;100983.66;474313;109;922382;-67
2021/05/12 04:48:29;;;;;;;1.31;0.61;;;;;;;10.45;69.84;100983.46;474967;109;930357;-66
2021/05/12 04:49:33;;;;;;;1.67;0.70;;;;;;;10.46;69.89;100982.42;474811;108;922877;-65
2021/05/12 04:50:36;;;;;;;1.91;0.59;;;;;;;10.49;69.83;100973.82;475430;108;930183;-66
2021/05/12 04:51:40;;;;;;;1.87;0.47;;;;;;;10.52;69.74;100988.94;474913;109;923316;-65
2021/05/12 04:52:43;;;;;;;2.16;0.98;;;;;;;10.54;69.84;100984.11;475202;110;930072;-67
2021/05/12 04:53:47;;;;;;;1.49;0.72;;;;;;;10.57;69.80;100981.83;475623;110;930290;-67
2021/05/12 04:54:51;;;;;;;3.01;0.94;;;;;;;10.61;69.73;100982.25;475568;109;923164;-65
2021/05/12 04:55:54;;;;;;;1.98;0.82;;;;;;;10.63;69.58;100980.17;475791;108;922449;-67
2021/05/12 04:56:59;;;;;;;2.17;0.64;;;;;;;10.65;69.45;100980.78;475607;109;922812;-66
2021/05/12 04:58:03;;;;;;;1.91;0.86;;;;;;;10.68;69.24;100981.23;475723;110;930410;-66
2021/05/12 04:59:06;;;;;;;1.66;0.71;;;;;;;10.71;69.17;100982.70;474762;109;922467;-67
2021/05/12 05:00:12;;;;;;;1.93;0.74;;;;;;;10.72;69.23;100987.11;473497;109;923338;-64
2021/05/12 05:01:16;;;;;;;2.52;0.83;;;;;;;10.74;69.08;100987.75;474197;109;930225;-64